sensor_id;sensor_type;location;lat;lon;timestamp;P1;durP1;ratioP1;P2;durP2;ratioP2
19780;SDS011;10050;55.492;13.506;2023-03-04T13:21:45;0.93;;;0.90;;
19780;SDS011;10050;55.492;13.506;2023-03-04T13:51:23;0.67;;;0.67;;
19780;SDS011;10050;55.492;13.506;2023-03-04T13:53:54;0.77;;;0.73;;
19780;SDS011;10050;55.492;13.506;2023-03-04T14:01:39;0.60;;;0.60;;
19780;SDS011;10050;55.492;13.506;2023-03-04T14:04:35;0.80;;;0.80;;
19780;SDS011;10050;55.492;13.506;2023-03-04T14:07:15;0.70;;;0.70;;
19780;SDS011;10050;55.492;13.506;2023-03-04T14:12:48;1.33;;;0.80;;
19780;SDS011;10050;55.492;13.506;2023-03-04T14:17:50;1.80;;;0.90;;
19780;SDS011;10050;55.492;13.506;2023-03-04T14:20:26;0.90;;;0.90;;
19780;SDS011;10050;55.492;13.506;2023-03-04T14:22:54;0.90;;;0.90;;
19780;SDS011;10050;55.492;13.506;2023-03-04T14:25:26;0.80;;;0.80;;
19780;SDS011;10050;55.492;13.506;2023-03-04T14:28:04;0.77;;;0.77;;
19780;SDS011;10050;55.492;13.506;2023-03-04T14:30:35;0.83;;;0.83;;
19780;SDS011;10050;55.492;13.506;2023-03-04T14:33:01;3.47;;;0.87;;
19780;SDS011;10050;55.492;13.506;2023-03-04T14:35:28;0.90;;;0.90;;
19780;SDS011;10050;55.492;13.506;2023-03-04T14:40:34;0.93;;;0.93;;
19780;SDS011;10050;55.492;13.506;2023-03-04T14:43:09;2.37;;;1.00;;
19780;SDS011;10050;55.492;13.506;2023-03-04T14:45:44;2.23;;;1.00;;
19780;SDS011;10050;55.492;13.506;2023-03-04T14:48:21;1.10;;;0.90;;
19780;SDS011;10050;55.492;13.506;2023-03-04T14:50:52;0.67;;;0.67;;
19780;SDS011;10050;55.492;13.506;2023-03-04T14:53:20;0.70;;;0.70;;
19780;SDS011;10050;55.492;13.506;2023-03-04T14:55:54;1.07;;;0.83;;
19780;SDS011;10050;55.492;13.506;2023-03-04T14:58:23;1.47;;;0.80;;
19780;SDS011;10050;55.492;13.506;2023-03-04T15:04:04;1.43;;;0.90;;
19780;SDS011;10050;55.492;13.506;2023-03-04T15:06:33;1.40;;;0.93;;
19780;SDS011;10050;55.492;13.506;2023-03-04T15:09:07;0.73;;;0.73;;
19780;SDS011;10050;55.492;13.506;2023-03-04T15:11:58;0.80;;;0.80;;
19780;SDS011;10050;55.492;13.506;2023-03-04T15:14:42;2.07;;;1.07;;
19780;SDS011;10050;55.492;13.506;2023-03-04T15:22:35;1.07;;;0.70;;
19780;SDS011;10050;55.492;13.506;2023-03-04T15:25:20;1.80;;;0.80;;
19780;SDS011;10050;55.492;13.506;2023-03-04T15:27:47;1.07;;;0.87;;
19780;SDS011;10050;55.492;13.506;2023-03-04T15:30:15;4.17;;;1.00;;
19780;SDS011;10050;55.492;13.506;2023-03-04T15:32:46;1.00;;;0.80;;
19780;SDS011;10050;55.492;13.506;2023-03-04T15:35:13;1.17;;;1.17;;
19780;SDS011;10050;55.492;13.506;2023-03-04T15:37:40;1.10;;;1.10;;
19780;SDS011;10050;55.492;13.506;2023-03-04T15:40:20;3.20;;;1.20;;
19780;SDS011;10050;55.492;13.506;2023-03-04T15:42:56;2.70;;;0.80;;
19780;SDS011;10050;55.492;13.506;2023-03-04T15:45:30;1.00;;;1.00;;
19780;SDS011;10050;55.492;13.506;2023-03-04T15:48:00;1.30;;;0.90;;
19780;SDS011;10050;55.492;13.506;2023-03-04T15:50:31;2.33;;;0.97;;
19780;SDS011;10050;55.492;13.506;2023-03-04T15:53:02;1.33;;;1.10;;
19780;SDS011;10050;55.492;13.506;2023-03-04T15:55:44;2.03;;;1.00;;
19780;SDS011;10050;55.492;13.506;2023-03-04T15:58:10;0.97;;;0.80;;
19780;SDS011;10050;55.492;13.506;2023-03-04T16:00:37;1.20;;;0.73;;
19780;SDS011;10050;55.492;13.506;2023-03-04T16:03:03;0.80;;;0.77;;
19780;SDS011;10050;55.492;13.506;2023-03-04T16:05:37;1.53;;;1.07;;
19780;SDS011;10050;55.492;13.506;2023-03-04T16:08:03;0.90;;;0.90;;
19780;SDS011;10050;55.492;13.506;2023-03-04T16:10:29;1.10;;;0.80;;
19780;SDS011;10050;55.492;13.506;2023-03-04T16:12:56;1.03;;;0.83;;
19780;SDS011;10050;55.492;13.506;2023-03-04T16:15:23;0.77;;;0.70;;
19780;SDS011;10050;55.492;13.506;2023-03-04T16:17:51;2.40;;;0.80;;
19780;SDS011;10050;55.492;13.506;2023-03-04T16:20:19;2.87;;;0.90;;
19780;SDS011;10050;55.492;13.506;2023-03-04T16:22:48;0.80;;;0.70;;
19780;SDS011;10050;55.492;13.506;2023-03-04T16:25:18;1.70;;;0.90;;
19780;SDS011;10050;55.492;13.506;2023-03-04T16:27:44;1.03;;;0.80;;
19780;SDS011;10050;55.492;13.506;2023-03-04T16:30:15;2.40;;;1.00;;
19780;SDS011;10050;55.492;13.506;2023-03-04T16:32:46;2.23;;;1.00;;
19780;SDS011;10050;55.492;13.506;2023-03-04T16:35:12;1.63;;;0.70;;
19780;SDS011;10050;55.492;13.506;2023-03-04T16:37:39;0.90;;;0.90;;
19780;SDS011;10050;55.492;13.506;2023-03-04T16:40:06;0.60;;;0.60;;
19780;SDS011;10050;55.492;13.506;2023-03-04T16:42:35;1.77;;;1.00;;
19780;SDS011;10050;55.492;13.506;2023-03-04T16:45:01;0.90;;;0.90;;
19780;SDS011;10050;55.492;13.506;2023-03-04T16:47:27;2.67;;;0.93;;
19780;SDS011;10050;55.492;13.506;2023-03-04T16:49:52;1.90;;;1.00;;
19780;SDS011;10050;55.492;13.506;2023-03-04T16:52:36;2.17;;;0.80;;
19780;SDS011;10050;55.492;13.506;2023-03-04T16:55:02;1.23;;;0.97;;
19780;SDS011;10050;55.492;13.506;2023-03-04T16:57:28;0.80;;;0.80;;
19780;SDS011;10050;55.492;13.506;2023-03-04T16:59:55;1.13;;;1.03;;
19780;SDS011;10050;55.492;13.506;2023-03-04T17:02:22;0.90;;;0.90;;
19780;SDS011;10050;55.492;13.506;2023-03-04T17:04:51;2.83;;;0.93;;
19780;SDS011;10050;55.492;13.506;2023-03-04T17:07:17;1.33;;;1.23;;
19780;SDS011;10050;55.492;13.506;2023-03-04T17:09:42;1.80;;;0.73;;
19780;SDS011;10050;55.492;13.506;2023-03-04T17:12:09;2.67;;;1.13;;
19780;SDS011;10050;55.492;13.506;2023-03-04T17:14:38;1.40;;;0.90;;
19780;SDS011;10050;55.492;13.506;2023-03-04T17:17:04;1.87;;;1.13;;
19780;SDS011;10050;55.492;13.506;2023-03-04T17:19:30;1.33;;;0.90;;
19780;SDS011;10050;55.492;13.506;2023-03-04T17:21:59;1.13;;;1.03;;
19780;SDS011;10050;55.492;13.506;2023-03-04T17:24:26;2.40;;;0.97;;
19780;SDS011;10050;55.492;13.506;2023-03-04T17:26:52;3.83;;;1.00;;
19780;SDS011;10050;55.492;13.506;2023-03-04T17:29:18;1.27;;;0.83;;
19780;SDS011;10050;55.492;13.506;2023-03-04T17:31:44;0.73;;;0.73;;
19780;SDS011;10050;55.492;13.506;2023-03-04T17:34:10;1.43;;;0.90;;
19780;SDS011;10050;55.492;13.506;2023-03-04T17:36:36;2.43;;;1.13;;
19780;SDS011;10050;55.492;13.506;2023-03-04T17:39:02;2.53;;;1.30;;
19780;SDS011;10050;55.492;13.506;2023-03-04T17:41:28;1.20;;;1.00;;
19780;SDS011;10050;55.492;13.506;2023-03-04T17:43:54;1.87;;;1.20;;
19780;SDS011;10050;55.492;13.506;2023-03-04T17:46:21;1.47;;;1.07;;
19780;SDS011;10050;55.492;13.506;2023-03-04T17:48:50;1.60;;;0.77;;
19780;SDS011;10050;55.492;13.506;2023-03-04T17:51:19;3.57;;;1.10;;
19780;SDS011;10050;55.492;13.506;2023-03-04T17:53:45;1.30;;;1.20;;
19780;SDS011;10050;55.492;13.506;2023-03-04T17:56:11;2.13;;;1.30;;
19780;SDS011;10050;55.492;13.506;2023-03-04T17:58:37;0.73;;;0.73;;
19780;SDS011;10050;55.492;13.506;2023-03-04T18:01:10;1.13;;;1.03;;
19780;SDS011;10050;55.492;13.506;2023-03-04T18:03:38;0.90;;;0.80;;
19780;SDS011;10050;55.492;13.506;2023-03-04T18:06:03;3.30;;;1.10;;
19780;SDS011;10050;55.492;13.506;2023-03-04T18:08:29;1.50;;;1.07;;
19780;SDS011;10050;55.492;13.506;2023-03-04T18:10:55;1.00;;;0.70;;
19780;SDS011;10050;55.492;13.506;2023-03-04T18:13:20;1.20;;;1.10;;
19780;SDS011;10050;55.492;13.506;2023-03-04T18:15:46;1.23;;;1.13;;
19780;SDS011;10050;55.492;13.506;2023-03-04T18:18:13;1.20;;;1.10;;
19780;SDS011;10050;55.492;13.506;2023-03-04T18:20:39;1.07;;;1.00;;
19780;SDS011;10050;55.492;13.506;2023-03-04T18:23:04;1.80;;;1.30;;
19780;SDS011;10050;55.492;13.506;2023-03-04T18:25:30;5.40;;;1.07;;
19780;SDS011;10050;55.492;13.506;2023-03-04T18:27:56;2.97;;;1.23;;
19780;SDS011;10050;55.492;13.506;2023-03-04T18:30:21;1.10;;;1.00;;
19780;SDS011;10050;55.492;13.506;2023-03-04T18:32:51;1.20;;;0.90;;
19780;SDS011;10050;55.492;13.506;2023-03-04T18:35:18;2.30;;;0.93;;
19780;SDS011;10050;55.492;13.506;2023-03-04T18:37:44;1.73;;;0.83;;
19780;SDS011;10050;55.492;13.506;2023-03-04T18:40:10;2.57;;;1.13;;
19780;SDS011;10050;55.492;13.506;2023-03-04T18:42:36;2.47;;;0.90;;
19780;SDS011;10050;55.492;13.506;2023-03-04T18:45:02;3.00;;;1.10;;
19780;SDS011;10050;55.492;13.506;2023-03-04T18:47:29;1.53;;;1.10;;
19780;SDS011;10050;55.492;13.506;2023-03-04T18:49:56;1.33;;;1.00;;
19780;SDS011;10050;55.492;13.506;2023-03-04T18:52:22;1.70;;;1.10;;
19780;SDS011;10050;55.492;13.506;2023-03-04T18:54:47;1.50;;;1.00;;
19780;SDS011;10050;55.492;13.506;2023-03-04T18:57:13;0.97;;;0.97;;
19780;SDS011;10050;55.492;13.506;2023-03-04T19:04:56;1.73;;;1.30;;
19780;SDS011;10050;55.492;13.506;2023-03-04T19:07:26;3.63;;;1.20;;
19780;SDS011;10050;55.492;13.506;2023-03-04T19:09:52;2.50;;;1.40;;
19780;SDS011;10050;55.492;13.506;2023-03-04T19:12:18;3.00;;;1.17;;
19780;SDS011;10050;55.492;13.506;2023-03-04T19:14:43;1.77;;;1.20;;
19780;SDS011;10050;55.492;13.506;2023-03-04T19:17:09;2.23;;;1.13;;
19780;SDS011;10050;55.492;13.506;2023-03-04T19:19:35;4.83;;;1.20;;
19780;SDS011;10050;55.492;13.506;2023-03-04T19:22:01;1.20;;;1.10;;
19780;SDS011;10050;55.492;13.506;2023-03-04T19:24:27;2.13;;;1.23;;
19780;SDS011;10050;55.492;13.506;2023-03-04T19:26:53;2.00;;;1.20;;
19780;SDS011;10050;55.492;13.506;2023-03-04T19:29:18;1.50;;;1.30;;
19780;SDS011;10050;55.492;13.506;2023-03-04T19:31:44;3.50;;;1.13;;
19780;SDS011;10050;55.492;13.506;2023-03-04T19:34:10;2.70;;;1.33;;
19780;SDS011;10050;55.492;13.506;2023-03-04T19:36:36;2.37;;;1.00;;
19780;SDS011;10050;55.492;13.506;2023-03-04T19:39:01;3.27;;;1.10;;
19780;SDS011;10050;55.492;13.506;2023-03-04T19:41:28;4.67;;;1.03;;
19780;SDS011;10050;55.492;13.506;2023-03-04T19:43:53;2.73;;;1.10;;
19780;SDS011;10050;55.492;13.506;2023-03-04T19:46:19;1.83;;;1.10;;
19780;SDS011;10050;55.492;13.506;2023-03-04T19:48:45;4.37;;;1.40;;
19780;SDS011;10050;55.492;13.506;2023-03-04T19:51:21;4.13;;;2.10;;
19780;SDS011;10050;55.492;13.506;2023-03-04T19:53:50;2.77;;;1.27;;
19780;SDS011;10050;55.492;13.506;2023-03-04T19:56:16;2.70;;;1.33;;
19780;SDS011;10050;55.492;13.506;2023-03-04T19:58:42;3.27;;;1.23;;
19780;SDS011;10050;55.492;13.506;2023-03-04T20:01:24;3.47;;;1.20;;
19780;SDS011;10050;55.492;13.506;2023-03-04T20:03:56;2.13;;;1.10;;
19780;SDS011;10050;55.492;13.506;2023-03-04T20:06:23;7.40;;;1.90;;
19780;SDS011;10050;55.492;13.506;2023-03-04T20:08:51;4.40;;;1.70;;
19780;SDS011;10050;55.492;13.506;2023-03-04T20:11:21;2.10;;;1.30;;
19780;SDS011;10050;55.492;13.506;2023-03-04T20:13:46;7.60;;;1.30;;
19780;SDS011;10050;55.492;13.506;2023-03-04T20:16:12;1.87;;;1.20;;
19780;SDS011;10050;55.492;13.506;2023-03-04T20:18:39;3.10;;;1.13;;
19780;SDS011;10050;55.492;13.506;2023-03-04T20:21:05;3.37;;;1.10;;
19780;SDS011;10050;55.492;13.506;2023-03-04T20:23:31;3.67;;;1.40;;
19780;SDS011;10050;55.492;13.506;2023-03-04T20:25:57;2.97;;;1.40;;
19780;SDS011;10050;55.492;13.506;2023-03-04T20:28:23;1.60;;;1.27;;
19780;SDS011;10050;55.492;13.506;2023-03-04T20:30:49;2.13;;;1.30;;
19780;SDS011;10050;55.492;13.506;2023-03-04T20:33:15;1.27;;;1.17;;
19780;SDS011;10050;55.492;13.506;2023-03-04T20:35:42;2.20;;;1.23;;
19780;SDS011;10050;55.492;13.506;2023-03-04T20:38:08;1.80;;;1.30;;
19780;SDS011;10050;55.492;13.506;2023-03-04T20:40:34;3.07;;;1.20;;
19780;SDS011;10050;55.492;13.506;2023-03-04T20:43:01;2.27;;;1.50;;
19780;SDS011;10050;55.492;13.506;2023-03-04T20:45:29;2.40;;;1.20;;
19780;SDS011;10050;55.492;13.506;2023-03-04T20:47:56;0.90;;;0.90;;
19780;SDS011;10050;55.492;13.506;2023-03-04T20:50:22;1.80;;;1.00;;
19780;SDS011;10050;55.492;13.506;2023-03-04T20:52:47;1.30;;;1.10;;
19780;SDS011;10050;55.492;13.506;2023-03-04T20:55:13;2.37;;;1.23;;
19780;SDS011;10050;55.492;13.506;2023-03-04T20:57:39;2.57;;;1.30;;
19780;SDS011;10050;55.492;13.506;2023-03-04T21:00:05;2.10;;;1.23;;
19780;SDS011;10050;55.492;13.506;2023-03-04T21:02:32;2.33;;;1.20;;
19780;SDS011;10050;55.492;13.506;2023-03-04T21:04:58;1.57;;;1.07;;
19780;SDS011;10050;55.492;13.506;2023-03-04T21:07:25;4.30;;;1.63;;
19780;SDS011;10050;55.492;13.506;2023-03-04T21:09:51;1.73;;;1.53;;
19780;SDS011;10050;55.492;13.506;2023-03-04T21:12:17;1.50;;;1.40;;
19780;SDS011;10050;55.492;13.506;2023-03-04T21:14:43;2.70;;;1.60;;
19780;SDS011;10050;55.492;13.506;2023-03-04T21:17:09;2.43;;;1.30;;
19780;SDS011;10050;55.492;13.506;2023-03-04T21:19:36;4.97;;;1.43;;
19780;SDS011;10050;55.492;13.506;2023-03-04T21:22:04;1.20;;;1.00;;
19780;SDS011;10050;55.492;13.506;2023-03-04T21:24:31;2.10;;;1.43;;
19780;SDS011;10050;55.492;13.506;2023-03-04T21:26:59;5.33;;;1.20;;
19780;SDS011;10050;55.492;13.506;2023-03-04T21:29:26;3.50;;;1.30;;
19780;SDS011;10050;55.492;13.506;2023-03-04T21:31:53;4.83;;;1.37;;
19780;SDS011;10050;55.492;13.506;2023-03-04T21:34:27;2.13;;;1.40;;
19780;SDS011;10050;55.492;13.506;2023-03-04T21:36:57;1.33;;;0.93;;
19780;SDS011;10050;55.492;13.506;2023-03-04T21:39:23;2.10;;;1.20;;
19780;SDS011;10050;55.492;13.506;2023-03-04T21:41:49;2.67;;;1.60;;
19780;SDS011;10050;55.492;13.506;2023-03-04T21:44:15;5.10;;;2.27;;
19780;SDS011;10050;55.492;13.506;2023-03-04T21:46:41;2.70;;;1.90;;
19780;SDS011;10050;55.492;13.506;2023-03-04T21:49:07;5.57;;;2.00;;
19780;SDS011;10050;55.492;13.506;2023-03-04T21:51:38;4.40;;;2.23;;
19780;SDS011;10050;55.492;13.506;2023-03-04T21:54:08;6.87;;;2.60;;
19780;SDS011;10050;55.492;13.506;2023-03-04T21:56:35;5.07;;;1.73;;
19780;SDS011;10050;55.492;13.506;2023-03-04T21:59:01;3.40;;;1.67;;
19780;SDS011;10050;55.492;13.506;2023-03-04T22:01:29;3.20;;;1.83;;
19780;SDS011;10050;55.492;13.506;2023-03-04T22:03:56;4.10;;;1.83;;
19780;SDS011;10050;55.492;13.506;2023-03-04T22:06:21;4.10;;;1.50;;
19780;SDS011;10050;55.492;13.506;2023-03-04T22:08:48;2.90;;;1.50;;
19780;SDS011;10050;55.492;13.506;2023-03-04T22:11:15;1.80;;;1.20;;
19780;SDS011;10050;55.492;13.506;2023-03-04T22:13:42;3.20;;;1.60;;
19780;SDS011;10050;55.492;13.506;2023-03-04T22:16:08;3.00;;;1.20;;
19780;SDS011;10050;55.492;13.506;2023-03-04T22:18:34;1.53;;;1.33;;
19780;SDS011;10050;55.492;13.506;2023-03-04T22:21:02;3.77;;;1.40;;
19780;SDS011;10050;55.492;13.506;2023-03-04T22:23:29;4.60;;;1.67;;
19780;SDS011;10050;55.492;13.506;2023-03-04T22:25:55;3.20;;;1.30;;
19780;SDS011;10050;55.492;13.506;2023-03-04T22:28:25;1.33;;;1.23;;
19780;SDS011;10050;55.492;13.506;2023-03-04T22:30:52;2.17;;;1.60;;
19780;SDS011;10050;55.492;13.506;2023-03-04T22:33:19;2.63;;;1.70;;
19780;SDS011;10050;55.492;13.506;2023-03-04T22:35:45;1.80;;;1.67;;
19780;SDS011;10050;55.492;13.506;2023-03-04T22:38:11;3.50;;;1.30;;
19780;SDS011;10050;55.492;13.506;2023-03-04T22:40:36;2.63;;;1.50;;
19780;SDS011;10050;55.492;13.506;2023-03-04T22:43:02;2.03;;;1.53;;
19780;SDS011;10050;55.492;13.506;2023-03-04T22:45:30;2.60;;;1.27;;
19780;SDS011;10050;55.492;13.506;2023-03-04T22:47:56;1.57;;;1.43;;
19780;SDS011;10050;55.492;13.506;2023-03-04T22:50:22;3.50;;;1.50;;
19780;SDS011;10050;55.492;13.506;2023-03-04T22:52:48;2.50;;;1.47;;
19780;SDS011;10050;55.492;13.506;2023-03-04T22:55:15;2.23;;;1.40;;
19780;SDS011;10050;55.492;13.506;2023-03-04T22:57:43;5.70;;;3.20;;
19780;SDS011;10050;55.492;13.506;2023-03-04T23:00:22;5.97;;;1.80;;
19780;SDS011;10050;55.492;13.506;2023-03-04T23:02:50;3.40;;;1.70;;
19780;SDS011;10050;55.492;13.506;2023-03-04T23:05:16;7.00;;;2.60;;
19780;SDS011;10050;55.492;13.506;2023-03-04T23:07:45;13.00;;;4.43;;
19780;SDS011;10050;55.492;13.506;2023-03-04T23:10:12;8.20;;;3.40;;
19780;SDS011;10050;55.492;13.506;2023-03-04T23:12:40;16.33;;;8.00;;
19780;SDS011;10050;55.492;13.506;2023-03-04T23:15:06;6.23;;;3.40;;
19780;SDS011;10050;55.492;13.506;2023-03-04T23:17:33;5.30;;;2.87;;
19780;SDS011;10050;55.492;13.506;2023-03-04T23:19:58;3.73;;;2.30;;
19780;SDS011;10050;55.492;13.506;2023-03-04T23:22:24;4.73;;;1.97;;
19780;SDS011;10050;55.492;13.506;2023-03-04T23:24:50;4.13;;;1.50;;
19780;SDS011;10050;55.492;13.506;2023-03-04T23:27:15;5.37;;;1.40;;
19780;SDS011;10050;55.492;13.506;2023-03-04T23:29:41;2.73;;;1.27;;
19780;SDS011;10050;55.492;13.506;2023-03-04T23:32:07;5.73;;;1.47;;
19780;SDS011;10050;55.492;13.506;2023-03-04T23:34:32;3.03;;;1.27;;
19780;SDS011;10050;55.492;13.506;2023-03-04T23:36:59;2.10;;;0.97;;
19780;SDS011;10050;55.492;13.506;2023-03-04T23:39:25;1.90;;;1.10;;
19780;SDS011;10050;55.492;13.506;2023-03-04T23:41:51;1.77;;;1.10;;
19780;SDS011;10050;55.492;13.506;2023-03-04T23:44:16;1.23;;;1.03;;
19780;SDS011;10050;55.492;13.506;2023-03-04T23:46:42;1.77;;;1.07;;
19780;SDS011;10050;55.492;13.506;2023-03-04T23:49:08;2.33;;;1.03;;
19780;SDS011;10050;55.492;13.506;2023-03-04T23:51:36;1.33;;;0.90;;
19780;SDS011;10050;55.492;13.506;2023-03-04T23:54:04;1.60;;;1.00;;
19780;SDS011;10050;55.492;13.506;2023-03-04T23:56:31;0.77;;;0.77;;
19780;SDS011;10050;55.492;13.506;2023-03-04T23:59:00;1.53;;;0.80;;
